createdAt,value
2023-04-25T00:02:23.787Z,101007.22
2023-04-25T00:04:53.409Z,101012.59
2023-04-25T00:07:21.875Z,101010.38
2023-04-25T00:09:50.166Z,101008.13
2023-04-25T00:12:18.379Z,101010.50
2023-04-25T00:14:46.608Z,101018.25
2023-04-25T00:17:14.809Z,101015.22
2023-04-25T00:19:45.641Z,101019.66
2023-04-25T00:22:14.223Z,101016.63
2023-04-25T00:24:42.408Z,101028.66
2023-04-25T00:27:10.606Z,101014.53
2023-04-25T00:29:38.784Z,101028.47
2023-04-25T00:32:07.173Z,101027.00
2023-04-25T00:34:35.406Z,101025.16
2023-04-25T00:37:05.017Z,101022.75
2023-04-25T00:39:33.314Z,101023.34
2023-04-25T00:42:02.984Z,101028.09
2023-04-25T00:44:33.207Z,101022.06
2023-04-25T00:47:02.650Z,101024.41
2023-04-25T00:49:30.910Z,101018.25
2023-04-25T00:51:59.269Z,101013.66
2023-04-25T00:54:28.946Z,101022.50
2023-04-25T00:56:57.148Z,101013.34
2023-04-25T00:59:26.002Z,101024.13
2023-04-25T01:01:54.366Z,101026.31
2023-04-25T01:04:23.183Z,101030.59
2023-04-25T01:06:51.961Z,101025.22
2023-04-25T01:09:21.695Z,101034.41
2023-04-25T01:11:51.681Z,101030.91
2023-04-25T01:14:20.001Z,101024.41
2023-04-25T01:16:49.217Z,101019.38
2023-04-25T01:19:20.189Z,101023.16
2023-04-25T01:21:50.124Z,101025.88
2023-04-25T01:24:18.358Z,101023.16
2023-04-25T01:26:50.976Z,101023.97
2023-04-25T01:29:20.124Z,101028.56
2023-04-25T01:31:48.967Z,101035.53
2023-04-25T01:34:17.305Z,101023.16
2023-04-25T01:36:45.565Z,101031.72
2023-04-25T01:39:15.382Z,101038.69
2023-04-25T01:41:43.777Z,101037.88
2023-04-25T01:44:12.182Z,101034.91
2023-04-25T01:46:40.605Z,101036.81
2023-04-25T01:49:09.123Z,101042.19
2023-04-25T01:51:37.482Z,101040.28
2023-04-25T01:54:06.118Z,101045.66
2023-04-25T01:56:39.249Z,101048.38
2023-04-25T01:59:07.926Z,101046.47
2023-04-25T02:01:36.191Z,101049.78
2023-04-25T02:04:04.515Z,101054.38
2023-04-25T02:06:33.241Z,101055.50
2023-04-25T02:09:01.421Z,101062.00
2023-04-25T02:11:29.717Z,101062.00
2023-04-25T02:13:59.273Z,101061.53
2023-04-25T02:16:27.548Z,101060.25
2023-04-25T02:18:56.858Z,101060.16
2023-04-25T02:21:25.100Z,101060.00
2023-04-25T02:23:53.692Z,101057.94
2023-04-25T02:26:22.013Z,101070.16
2023-04-25T02:28:50.722Z,101058.94
2023-04-25T02:31:20.421Z,101063.03
2023-04-25T02:33:49.738Z,101066.72
2023-04-25T02:36:18.089Z,101067.38
2023-04-25T02:38:46.300Z,101068.00
2023-04-25T02:41:14.645Z,101066.28
2023-04-25T02:43:42.790Z,101071.50
2023-04-25T02:46:11.056Z,101067.09
2023-04-25T02:48:40.605Z,101071.19
2023-04-25T02:51:08.830Z,101064.91
2023-04-25T02:53:37.125Z,101070.91
2023-04-25T02:56:05.905Z,101065.41
2023-04-25T02:58:34.101Z,101066.81
2023-04-25T03:01:02.363Z,101061.31
2023-04-25T03:03:30.614Z,101063.84
2023-04-25T03:06:00.213Z,101054.97
2023-04-25T03:08:33.290Z,101054.81
2023-04-25T03:11:01.684Z,101062.88
2023-04-25T03:13:30.904Z,101062.09
2023-04-25T03:15:59.180Z,101053.22
2023-04-25T03:18:27.321Z,101058.59
2023-04-25T03:20:55.585Z,101056.25
2023-04-25T03:23:25.088Z,101063.56
2023-04-25T03:25:53.271Z,101059.28
2023-04-25T03:28:21.548Z,101058.78
2023-04-25T03:30:49.809Z,101065.28
2023-04-25T03:33:17.960Z,101063.22
2023-04-25T03:35:46.584Z,101064.34
2023-04-25T03:38:14.802Z,101062.75
2023-04-25T03:40:44.349Z,101055.78
2023-04-25T03:43:12.594Z,101071.91
2023-04-25T03:45:41.015Z,101062.63
2023-04-25T03:48:09.326Z,101076.38
2023-04-25T03:50:37.801Z,101074.81
2023-04-25T03:53:06.227Z,101085.84
2023-04-25T03:55:34.501Z,101089.19
2023-04-25T03:58:04.044Z,101085.22
2023-04-25T04:00:32.260Z,101092.06
2023-04-25T04:03:00.542Z,101100.44
2023-04-25T04:05:29.474Z,101098.06
2023-04-25T04:07:57.753Z,101092.19
2023-04-25T04:10:27.101Z,101093.63
2023-04-25T04:12:55.341Z,101092.03
2023-04-25T04:15:24.926Z,101102.81
2023-04-25T04:17:53.179Z,101097.72
2023-04-25T04:20:21.416Z,101101.69
2023-04-25T04:22:49.578Z,101097.44
2023-04-25T04:25:17.986Z,101098.22
2023-04-25T04:27:47.081Z,101093.63
2023-04-25T04:30:16.821Z,101099.47
2023-04-25T04:32:47.414Z,101092.50
2023-04-25T04:35:16.855Z,101111.00
2023-04-25T04:37:46.786Z,101099.47
2023-04-25T04:40:16.577Z,101107.22
2023-04-25T04:42:46.264Z,101115.00
2023-04-25T04:45:14.483Z,101118.16
2023-04-25T04:47:42.851Z,101126.69
2023-04-25T04:50:13.343Z,101126.06
2023-04-25T04:52:41.536Z,101121.63
2023-04-25T04:55:11.184Z,101132.09
2023-04-25T04:57:39.709Z,101129.53
2023-04-25T05:00:12.016Z,101131.59
2023-04-25T05:02:41.333Z,101137.13
2023-04-25T05:05:10.916Z,101133.03
2023-04-25T05:07:40.517Z,101138.88
2023-04-25T05:10:10.516Z,101142.78
2023-04-25T05:12:38.719Z,101147.88
2023-04-25T05:15:08.474Z,101150.41
2023-04-25T05:17:36.714Z,101143.63
2023-04-25T05:20:06.846Z,101146.13
2023-04-25T05:22:35.040Z,101153.25
2023-04-25T05:25:05.170Z,101162.72
2023-04-25T05:27:33.314Z,101152.91
2023-04-25T05:30:01.596Z,101160.81
2023-04-25T05:32:29.942Z,101160.16
2023-04-25T05:34:58.230Z,101170.63
2023-04-25T05:37:26.514Z,101185.69
2023-04-25T05:39:54.685Z,101175.69
2023-04-25T05:42:24.240Z,101179.97
2023-04-25T05:44:52.740Z,101192.31
2023-04-25T05:47:21.353Z,101187.41
2023-04-25T05:49:49.569Z,101194.69
2023-04-25T05:52:17.848Z,101192.31
2023-04-25T05:54:46.239Z,101197.25
2023-04-25T05:57:24.855Z,101198.81
2023-04-25T05:59:53.978Z,101205.63
2023-04-25T06:02:23.106Z,101204.81
2023-04-25T06:04:52.414Z,101203.25
2023-04-25T06:07:21.277Z,101207.22
2023-04-25T06:09:49.513Z,101201.97
2023-04-25T06:12:17.770Z,101209.88
2023-04-25T06:14:47.537Z,101199.75
2023-04-25T06:17:15.832Z,101202.91
2023-04-25T06:19:44.074Z,101203.94
2023-04-25T06:22:12.955Z,101213.56
2023-04-25T06:24:41.122Z,101220.94
2023-04-25T06:27:09.351Z,101220.88
2023-04-25T06:29:37.517Z,101223.16
2023-04-25T06:32:07.559Z,101226.19
2023-04-25T06:34:35.771Z,101227.44
2023-04-25T06:37:04.012Z,101238.34
2023-04-25T06:39:32.582Z,101228.31
2023-04-25T06:42:00.798Z,101229.44
2023-04-25T06:44:30.471Z,101233.09
2023-04-25T06:46:58.796Z,101240.41
2023-04-25T06:49:28.642Z,101241.19
2023-04-25T06:51:56.852Z,101244.53
2023-04-25T06:54:25.881Z,101245.31
2023-04-25T06:56:54.072Z,101254.03
2023-04-25T06:59:22.375Z,101254.94
2023-04-25T07:01:50.970Z,101248.84
2023-04-25T07:04:19.427Z,101244.94
2023-04-25T07:06:50.264Z,101243.72
2023-04-25T07:09:18.571Z,101261.53
2023-04-25T07:11:46.763Z,101256.56
2023-04-25T07:14:14.998Z,101249.28
2023-04-25T07:16:43.333Z,101254.22
2023-04-25T07:19:11.626Z,101261.44
2023-04-25T07:21:39.852Z,101252.41
2023-04-25T07:24:09.784Z,101253.16
2023-04-25T07:26:38.412Z,101263.53
2023-04-25T07:29:06.692Z,101269.34
2023-04-25T07:31:34.926Z,101263.53
2023-04-25T07:34:03.608Z,101272.31
2023-04-25T07:36:31.950Z,101261.03
2023-04-25T07:39:00.208Z,101268.16
2023-04-25T07:41:29.757Z,101266.31
2023-04-25T07:43:58.000Z,101284.25
2023-04-25T07:46:26.402Z,101283.53
2023-04-25T07:48:54.717Z,101284.91
2023-04-25T07:51:23.263Z,101281.50
2023-04-25T07:53:51.703Z,101275.94
2023-04-25T07:56:19.909Z,101289.09
2023-04-25T07:58:49.723Z,101288.38
2023-04-25T08:01:18.217Z,101298.06
2023-04-25T08:03:46.685Z,101301.25
2023-04-25T08:06:15.227Z,101293.53
2023-04-25T08:08:43.715Z,101303.38
2023-04-25T08:11:12.610Z,101308.34
2023-04-25T08:13:40.838Z,101311.09
2023-04-25T08:16:10.558Z,101324.47
2023-04-25T08:18:39.020Z,101321.06
2023-04-25T08:21:07.850Z,101328.31
2023-04-25T08:23:36.019Z,101327.72
2023-04-25T08:26:05.766Z,101325.88
2023-04-25T08:28:34.064Z,101328.34
2023-04-25T08:31:02.282Z,101323.78
2023-04-25T08:33:32.287Z,101337.50
2023-04-25T08:36:00.485Z,101335.16
2023-04-25T08:38:28.696Z,101340.31
2023-04-25T08:40:59.052Z,101343.22
2023-04-25T08:43:27.715Z,101351.25
2023-04-25T08:45:57.033Z,101360.31
2023-04-25T08:48:29.703Z,101364.47
2023-04-25T08:50:59.676Z,101365.72
2023-04-25T08:53:30.801Z,101364.09
2023-04-25T08:56:02.481Z,101365.44
2023-04-25T08:58:31.076Z,101369.53
2023-04-25T09:00:59.336Z,101373.00
2023-04-25T09:03:28.138Z,101366.94
2023-04-25T09:05:58.064Z,101373.78
2023-04-25T09:08:26.457Z,101382.84
2023-04-25T09:10:54.714Z,101386.44
2023-04-25T09:13:29.092Z,101393.34
2023-04-25T09:15:59.700Z,101393.91
2023-04-25T09:18:31.031Z,101392.88
2023-04-25T09:21:13.672Z,101400.81
2023-04-25T09:23:45.670Z,101410.03
2023-04-25T09:26:18.077Z,101415.63
2023-04-25T09:28:46.936Z,101410.28
2023-04-25T09:31:24.255Z,101417.78
2023-04-25T09:33:54.642Z,101411.72
2023-04-25T09:36:29.497Z,101416.78
2023-04-25T09:38:58.095Z,101437.84
2023-04-25T09:41:27.206Z,101429.84
2023-04-25T09:43:59.399Z,101423.84
2023-04-25T09:46:34.538Z,101435.41
2023-04-25T09:49:10.426Z,101431.03
2023-04-25T09:51:40.210Z,101435.66
2023-04-25T09:54:08.508Z,101430.31
2023-04-25T09:56:39.453Z,101430.19
2023-04-25T09:59:09.262Z,101432.50
2023-04-25T10:01:38.555Z,101436.84
2023-04-25T10:04:11.105Z,101438.06
2023-04-25T10:06:44.018Z,101437.78
2023-04-25T10:09:13.825Z,101441.09
2023-04-25T10:11:45.416Z,101441.19
2023-04-25T10:14:15.078Z,101446.09
2023-04-25T10:16:44.664Z,101442.56
2023-04-25T10:19:13.517Z,101442.19
2023-04-25T10:21:55.245Z,101448.75
2023-04-25T10:24:23.777Z,101444.19
2023-04-25T10:26:52.892Z,101438.78
2023-04-25T10:29:25.965Z,101434.75
2023-04-25T10:31:54.760Z,101437.66
2023-04-25T10:34:28.055Z,101442.75
2023-04-25T10:36:58.253Z,101448.97
2023-04-25T10:39:29.337Z,101445.91
2023-04-25T10:41:58.912Z,101459.56
2023-04-25T10:44:30.420Z,101453.75
2023-04-25T10:47:00.059Z,101458.97
2023-04-25T10:49:36.447Z,101465.03
2023-04-25T10:52:20.946Z,101474.34
2023-04-25T10:54:49.910Z,101488.38
2023-04-25T10:57:39.081Z,101495.19
2023-04-25T11:00:34.202Z,101505.38
2023-04-25T11:03:19.200Z,101495.09
2023-04-25T11:05:57.729Z,101501.50
2023-04-25T11:08:40.128Z,101515.69
2023-04-25T11:11:08.371Z,101506.06
2023-04-25T11:13:36.917Z,101485.78
2023-04-25T11:16:12.386Z,101482.75
2023-04-25T11:18:43.688Z,101482.41
2023-04-25T11:21:12.314Z,101484.31
2023-04-25T11:23:41.986Z,101473.28
2023-04-25T11:26:10.332Z,101478.34
2023-04-25T11:28:38.541Z,101456.81
2023-04-25T11:31:07.719Z,101465.19
2023-04-25T11:33:35.965Z,101477.81
2023-04-25T11:36:04.359Z,101469.13
2023-04-25T11:38:32.666Z,101463.56
2023-04-25T11:41:02.709Z,101466.31
2023-04-25T11:43:31.228Z,101466.50
2023-04-25T11:45:59.511Z,101473.41
2023-04-25T11:48:27.694Z,101466.81
2023-04-25T11:50:56.474Z,101470.91
2023-04-25T11:53:25.857Z,101476.22
2023-04-25T11:55:54.242Z,101478.06
2023-04-25T11:58:24.184Z,101480.13
2023-04-25T12:00:52.521Z,101480.19
2023-04-25T12:03:22.287Z,101478.88
2023-04-25T12:05:50.893Z,101484.59
2023-04-25T12:08:19.291Z,101482.53
2023-04-25T12:10:49.082Z,101478.50
2023-04-25T12:13:24.055Z,101489.19
2023-04-25T12:15:52.449Z,101491.25
2023-04-25T12:18:23.213Z,101496.72
2023-04-25T12:20:51.565Z,101498.56
2023-04-25T12:23:20.008Z,101509.28
2023-04-25T12:25:48.272Z,101510.53
2023-04-25T12:28:20.535Z,101513.16
2023-04-25T12:30:58.840Z,101524.78
2023-04-25T12:33:28.919Z,101515.44
2023-04-25T12:35:58.515Z,101516.44
2023-04-25T12:38:29.954Z,101530.47
2023-04-25T12:40:58.941Z,101518.09
2023-04-25T12:43:27.518Z,101533.38
2023-04-25T12:45:58.510Z,101529.34
2023-04-25T12:48:26.842Z,101536.78
2023-04-25T12:50:55.193Z,101543.50
2023-04-25T12:53:25.225Z,101544.72
2023-04-25T12:58:22.051Z,101543.28
2023-04-25T13:00:50.353Z,101531.19
2023-04-25T13:03:20.258Z,101540.16
2023-04-25T13:05:48.717Z,101541.03
2023-04-25T13:08:16.906Z,101540.91
2023-04-25T13:10:45.131Z,101529.56
2023-04-25T13:13:13.353Z,101523.69
2023-04-25T13:15:41.699Z,101532.94
2023-04-25T13:18:10.067Z,101523.53
2023-04-25T13:20:39.734Z,101527.69
2023-04-25T13:23:07.939Z,101524.44
2023-04-25T13:25:36.288Z,101529.16
2023-04-25T13:28:04.860Z,101521.81
2023-04-25T13:30:33.143Z,101515.28
2023-04-25T13:33:04.199Z,101516.06
2023-04-25T13:35:37.431Z,101512.13
2023-04-25T13:38:07.146Z,101511.44
2023-04-25T13:40:35.831Z,101515.97
2023-04-25T13:43:04.214Z,101513.25
2023-04-25T13:45:33.713Z,101520.22
2023-04-25T13:48:02.679Z,101517.38
2023-04-25T13:50:31.300Z,101522.13
2023-04-25T13:52:59.504Z,101512.59
2023-04-25T13:55:29.205Z,101517.28
2023-04-25T13:57:57.448Z,101508.47
2023-04-25T14:00:25.835Z,101521.47
2023-04-25T14:02:54.544Z,101514.38
2023-04-25T14:05:22.828Z,101511.56
2023-04-25T14:07:51.444Z,101512.56
2023-04-25T14:10:19.814Z,101514.16
2023-04-25T14:12:49.367Z,101513.25
2023-04-25T14:15:17.694Z,101507.81
2023-04-25T14:17:46.845Z,101506.84
2023-04-25T14:20:15.068Z,101519.47
2023-04-25T14:22:44.758Z,101515.16
2023-04-25T14:25:12.950Z,101517.38
2023-04-25T14:27:41.353Z,101517.41
2023-04-25T14:30:12.868Z,101521.91
2023-04-25T14:32:41.318Z,101522.47
2023-04-25T14:35:11.089Z,101522.19
2023-04-25T14:37:39.304Z,101519.88
2023-04-25T14:40:11.418Z,101522.88
2023-04-25T14:42:39.786Z,101514.06
2023-04-25T14:45:11.193Z,101519.31
2023-04-25T14:47:40.114Z,101526.16
2023-04-25T14:50:10.272Z,101534.16
2023-04-25T14:52:38.675Z,101530.47
2023-04-25T14:55:08.416Z,101524.88
2023-04-25T14:57:37.210Z,101534.91
2023-04-25T15:00:09.799Z,101523.69
2023-04-25T15:02:39.732Z,101537.94
2023-04-25T15:05:09.568Z,101542.28
2023-04-25T15:07:37.811Z,101544.63
2023-04-25T15:10:12.013Z,101552.78
2023-04-25T15:12:40.326Z,101542.06
2023-04-25T15:15:14.212Z,101544.91
2023-04-25T15:17:47.507Z,101550.25
2023-04-25T15:20:16.136Z,101543.47
2023-04-25T15:22:45.890Z,101542.28
2023-04-25T15:25:14.357Z,101542.69
2023-04-25T15:27:44.649Z,101542.47
2023-04-25T15:30:16.273Z,101540.28
2023-04-25T15:32:46.912Z,101549.72
2023-04-25T15:35:16.708Z,101558.72
2023-04-25T15:37:45.386Z,101551.38
2023-04-25T15:40:16.642Z,101560.25
2023-04-25T15:42:48.039Z,101557.41
2023-04-25T15:45:17.943Z,101555.06
2023-04-25T15:47:47.828Z,101557.25
2023-04-25T15:50:16.310Z,101558.75
2023-04-25T15:52:44.972Z,101562.63
2023-04-25T15:55:14.168Z,101557.50
2023-04-25T15:57:42.711Z,101565.59
2023-04-25T16:00:13.350Z,101554.63
2023-04-25T16:02:43.923Z,101549.53
2023-04-25T16:05:14.654Z,101560.66
2023-04-25T16:07:44.738Z,101569.06
2023-04-25T16:10:14.699Z,101559.94
2023-04-25T16:12:43.026Z,101566.88
2023-04-25T16:15:11.528Z,101564.84
2023-04-25T16:17:40.202Z,101562.13
2023-04-25T16:20:12.473Z,101566.59
2023-04-25T16:22:43.529Z,101569.13
2023-04-25T16:25:12.987Z,101568.13
2023-04-25T16:27:41.544Z,101564.09
2023-04-25T16:30:12.147Z,101566.13
2023-04-25T16:32:42.702Z,101571.94
2023-04-25T16:35:13.339Z,101570.75
2023-04-25T16:37:42.949Z,101571.25
2023-04-25T16:40:12.750Z,101576.44
2023-04-25T16:42:41.079Z,101584.38
2023-04-25T16:45:11.048Z,101576.81
2023-04-25T16:47:39.270Z,101587.53
2023-04-25T16:50:09.254Z,101591.59
2023-04-25T16:52:37.465Z,101575.59
2023-04-25T16:55:11.464Z,101579.19
2023-04-25T16:57:39.855Z,101583.72
2023-04-25T17:00:10.602Z,101582.91
2023-04-25T17:02:38.947Z,101585.41
2023-04-25T17:05:08.320Z,101587.75
2023-04-25T17:07:36.776Z,101578.97
2023-04-25T17:10:07.298Z,101589.44
2023-04-25T17:12:35.797Z,101593.41
2023-04-25T17:15:04.351Z,101591.94
2023-04-25T17:17:32.696Z,101594.97
2023-04-25T17:20:01.090Z,101594.56
2023-04-25T17:22:29.428Z,101595.66
2023-04-25T17:24:57.672Z,101599.19
2023-04-25T17:27:27.435Z,101603.34
2023-04-25T17:29:55.708Z,101609.44
2023-04-25T17:32:24.353Z,101612.16
2023-04-25T17:34:55.700Z,101612.38
2023-04-25T17:37:26.778Z,101621.63
2023-04-25T17:39:55.352Z,101623.91
2023-04-25T17:42:23.843Z,101615.09
2023-04-25T17:44:55.441Z,101624.09
2023-04-25T17:47:24.753Z,101627.00
2023-04-25T17:49:54.650Z,101641.91
2023-04-25T17:52:22.913Z,101642.09
2023-04-25T17:54:51.537Z,101638.47
2023-04-25T17:57:22.724Z,101632.81
2023-04-25T17:59:50.743Z,101635.75
2023-04-25T18:02:20.396Z,101637.53
2023-04-25T18:04:49.166Z,101631.53
2023-04-25T18:07:17.462Z,101638.59
2023-04-25T18:09:45.990Z,101637.22
2023-04-25T18:12:15.252Z,101639.78
2023-04-25T18:14:43.484Z,101645.09
2023-04-25T18:17:12.504Z,101656.09
2023-04-25T18:19:42.410Z,101657.09
2023-04-25T18:22:12.312Z,101653.00
2023-04-25T18:24:40.512Z,101660.84
2023-04-25T18:27:08.712Z,101655.94
2023-04-25T18:29:37.456Z,101671.91
2023-04-25T18:32:06.638Z,101668.94
2023-04-25T18:34:35.653Z,101681.06
2023-04-25T18:37:05.395Z,101693.50
2023-04-25T18:39:33.610Z,101688.28
2023-04-25T18:42:05.881Z,101685.44
2023-04-25T18:44:39.521Z,101690.19
2023-04-25T18:47:07.946Z,101687.38
2023-04-25T18:49:37.434Z,101692.94
2023-04-25T18:52:10.306Z,101695.03
2023-04-25T18:54:38.676Z,101704.09
2023-04-25T18:57:07.304Z,101711.75
2023-04-25T18:59:35.565Z,101701.09
2023-04-25T19:02:05.348Z,101705.25
2023-04-25T19:04:34.076Z,101705.09
2023-04-25T19:07:02.705Z,101699.56
2023-04-25T19:09:32.513Z,101710.53
2023-04-25T19:12:01.850Z,101721.16
2023-04-25T19:14:32.266Z,101732.16
2023-04-25T19:17:01.147Z,101711.81
2023-04-25T19:19:29.387Z,101730.25
2023-04-25T19:21:58.924Z,101732.47
2023-04-25T19:24:27.310Z,101742.31
2023-04-25T19:26:57.088Z,101733.28
2023-04-25T19:29:25.270Z,101736.59
2023-04-25T19:31:54.610Z,101733.00
2023-04-25T19:34:23.414Z,101737.09
2023-04-25T19:36:54.141Z,101738.84
2023-04-25T19:39:23.360Z,101738.34
2023-04-25T19:41:51.783Z,101737.41
2023-04-25T19:44:21.446Z,101737.22
2023-04-25T19:46:50.070Z,101732.78
2023-04-25T19:49:18.357Z,101745.34
2023-04-25T19:51:46.699Z,101746.59
2023-04-25T19:54:14.995Z,101752.13
2023-04-25T19:56:43.446Z,101749.91
2023-04-25T19:59:11.795Z,101743.53
2023-04-25T20:01:43.329Z,101751.81
2023-04-25T20:04:12.558Z,101748.44
2023-04-25T20:06:40.865Z,101757.78
2023-04-25T20:09:10.008Z,101756.03
2023-04-25T20:11:38.342Z,101760.75
2023-04-25T20:14:06.883Z,101762.00
2023-04-25T20:16:35.284Z,101758.16
2023-04-25T20:19:05.530Z,101762.09
2023-04-25T20:21:34.353Z,101768.75
2023-04-25T20:24:02.988Z,101766.78
2023-04-25T20:26:33.863Z,101761.06
2023-04-25T20:29:02.283Z,101760.69
2023-04-25T20:31:31.882Z,101766.81
2023-04-25T20:34:00.856Z,101763.75
2023-04-25T20:36:34.082Z,101763.72
2023-04-25T20:39:02.568Z,101765.06
2023-04-25T20:41:31.498Z,101769.25
2023-04-25T20:44:01.072Z,101763.00
2023-04-25T20:46:30.114Z,101772.31
2023-04-25T20:48:58.513Z,101763.03
2023-04-25T20:51:27.578Z,101772.84
2023-04-25T20:53:57.217Z,101777.03
2023-04-25T20:56:26.540Z,101770.19
2023-04-25T20:58:55.698Z,101771.69
2023-04-25T21:01:24.172Z,101770.50
2023-04-25T21:03:52.945Z,101780.09
2023-04-25T21:06:21.560Z,101785.06
2023-04-25T21:08:50.404Z,101792.72
2023-04-25T21:11:20.540Z,101789.34
2023-04-25T21:13:48.923Z,101789.94
2023-04-25T21:16:17.280Z,101797.00
2023-04-25T21:18:45.632Z,101784.25
2023-04-25T21:21:14.026Z,101789.72
2023-04-25T21:23:43.681Z,101787.13
2023-04-25T21:26:11.958Z,101790.72
2023-04-25T21:28:41.507Z,101794.56
2023-04-25T21:31:09.828Z,101795.44
2023-04-25T21:33:38.134Z,101793.38
2023-04-25T21:36:07.033Z,101800.41
2023-04-25T21:38:35.480Z,101801.28
2023-04-25T21:41:03.771Z,101802.22
2023-04-25T21:43:32.207Z,101800.09
2023-04-25T21:48:32.964Z,101809.31
2023-04-25T21:51:01.351Z,101802.63
2023-04-25T21:53:29.548Z,101805.91
2023-04-25T21:55:57.753Z,101807.59
2023-04-25T21:58:26.074Z,101807.38
2023-04-25T22:00:55.602Z,101804.97
2023-04-25T22:03:25.311Z,101808.22
2023-04-25T22:05:53.604Z,101811.81
2023-04-25T22:08:21.902Z,101811.59
2023-04-25T22:10:50.441Z,101808.69
2023-04-25T22:13:18.603Z,101817.81
2023-04-25T22:15:48.616Z,101829.66
2023-04-25T22:18:17.214Z,101823.31
2023-04-25T22:20:46.762Z,101821.97
2023-04-25T22:23:14.971Z,101826.03
2023-04-25T22:25:43.160Z,101829.28
2023-04-25T22:28:12.688Z,101834.16
2023-04-25T22:30:41.033Z,101823.19
2023-04-25T22:33:09.388Z,101831.53
2023-04-25T22:35:37.676Z,101837.19
2023-04-25T22:38:07.274Z,101833.22
2023-04-25T22:40:35.493Z,101836.75
2023-04-25T22:43:03.735Z,101839.19
2023-04-25T22:45:32.601Z,101850.53
2023-04-25T22:48:00.998Z,101852.47
2023-04-25T22:50:29.297Z,101852.22
2023-04-25T22:52:57.604Z,101854.69
2023-04-25T22:55:27.862Z,101845.03
2023-04-25T22:57:56.372Z,101855.56
2023-04-25T23:00:26.276Z,101850.50
2023-04-25T23:02:54.904Z,101860.72
2023-04-25T23:05:24.598Z,101860.97
2023-04-25T23:07:53.380Z,101856.69
2023-04-25T23:10:21.731Z,101858.06
2023-04-25T23:12:51.426Z,101852.97
2023-04-25T23:15:20.744Z,101850.28
2023-04-25T23:17:49.093Z,101861.59
2023-04-25T23:20:17.707Z,101857.88
2023-04-25T23:22:45.893Z,101870.28
2023-04-25T23:25:15.062Z,101869.22
2023-04-25T23:27:44.913Z,101873.28
2023-04-25T23:30:15.775Z,101865.03
2023-04-25T23:32:44.047Z,101869.34
2023-04-25T23:35:13.303Z,101871.00
2023-04-25T23:37:41.810Z,101875.59
2023-04-25T23:40:12.153Z,101869.78
2023-04-25T23:42:41.965Z,101875.16
2023-04-25T23:45:11.367Z,101881.91
2023-04-25T23:47:41.042Z,101882.50
2023-04-25T23:50:10.679Z,101874.50
2023-04-25T23:52:38.957Z,101872.09
2023-04-25T23:55:09.737Z,101863.03
2023-04-25T23:57:38.074Z,101868.63
